PILOTS ONLINE: 550    ATC ONLINE: 124

KTRK - Truckee Tahoe Airport

Location

City Truckee
Country  United States
Latitude 39° 19' 12" N
Longitude 120° 8' 23" W
Elevation 5900 ft
Type Medium Airport

Runways

01/19 4650 ft / 75 ft
10/28 7000 ft / 100 ft

Weather

METAR
2014/07/23 16:45
KTRK 231645Z 22016G23KT 10SM FEW180 21/00 A3028 RMK NOSPECI
TAF
2014/07/23 18:21
TAF KTRK 231720Z 2318/2418 22014G25KT P6SM SKC 
     FM240200 26011KT P6SM SKC 
     FM240500 VRB03KT P6SM SKC

Outbound flights

Inbound flights